createdAt,value
2022-09-04T00:00:10.611Z,100.00
2022-09-04T00:03:10.493Z,100.00
2022-09-04T00:06:02.965Z,100.00
2022-09-04T00:09:06.472Z,100.00
2022-09-04T00:12:02.013Z,100.00
2022-09-04T00:15:13.620Z,100.00
2022-09-04T00:18:09.843Z,100.00
2022-09-04T00:20:59.681Z,100.00
2022-09-04T00:24:02.390Z,100.00
2022-09-04T00:27:17.025Z,100.00
2022-09-04T00:30:08.553Z,100.00
2022-09-04T00:33:18.077Z,100.00
2022-09-04T00:36:06.110Z,100.00
2022-09-04T00:39:13.737Z,100.00
2022-09-04T00:42:37.261Z,100.00
2022-09-04T00:45:27.676Z,100.00
2022-09-04T00:48:37.013Z,100.00
2022-09-04T00:51:24.265Z,100.00
2022-09-04T00:54:21.834Z,100.00
2022-09-04T00:57:27.766Z,100.00
2022-09-04T01:00:18.688Z,100.00
2022-09-04T01:03:34.886Z,100.00
2022-09-04T01:06:46.774Z,100.00
2022-09-04T01:09:55.732Z,100.00
2022-09-04T01:13:04.832Z,100.00
2022-09-04T01:16:32.856Z,100.00
2022-09-04T01:19:47.481Z,100.00
2022-09-04T01:22:58.718Z,100.00
2022-09-04T01:25:56.552Z,100.00
2022-09-04T01:29:07.838Z,100.00
2022-09-04T01:32:01.678Z,100.00
2022-09-04T01:35:31.321Z,100.00
2022-09-04T01:38:51.240Z,100.00
2022-09-04T01:41:45.530Z,100.00
2022-09-04T01:44:34.073Z,100.00
2022-09-04T01:47:31.706Z,100.00
2022-09-04T01:50:26.531Z,100.00
2022-09-04T01:53:43.695Z,100.00
2022-09-04T01:57:19.030Z,100.00
2022-09-04T02:00:16.360Z,100.00
2022-09-04T02:03:14.461Z,100.00
2022-09-04T02:06:10.772Z,100.00
2022-09-04T02:09:34.224Z,100.00
2022-09-04T02:12:50.911Z,100.00
2022-09-04T02:15:58.606Z,100.00
2022-09-04T02:19:15.464Z,100.00
2022-09-04T02:22:28.613Z,100.00
2022-09-04T02:25:25.959Z,100.00
2022-09-04T02:28:48.568Z,100.00
2022-09-04T02:31:38.579Z,100.00
2022-09-04T02:34:51.778Z,100.00
2022-09-04T02:37:46.873Z,100.00
2022-09-04T02:40:51.681Z,100.00
2022-09-04T02:44:07.745Z,100.00
2022-09-04T02:47:23.840Z,100.00
2022-09-04T02:50:26.417Z,100.00
2022-09-04T02:53:41.817Z,100.00
2022-09-04T02:57:07.770Z,100.00
2022-09-04T03:00:28.717Z,100.00
2022-09-04T03:03:21.246Z,100.00
2022-09-04T03:06:14.003Z,100.00
2022-09-04T03:09:12.126Z,100.00
2022-09-04T03:12:14.786Z,100.00
2022-09-04T03:15:11.637Z,100.00
2022-09-04T03:18:39.518Z,100.00
2022-09-04T03:21:34.386Z,100.00
2022-09-04T03:24:57.694Z,100.00
2022-09-04T03:27:44.952Z,100.00
2022-09-04T03:30:36.040Z,100.00
2022-09-04T03:33:51.522Z,100.00
2022-09-04T03:37:04.742Z,100.00
2022-09-04T03:40:09.867Z,100.00
2022-09-04T03:43:30.945Z,100.00
2022-09-04T03:46:36.364Z,100.00
2022-09-04T03:49:42.701Z,100.00
2022-09-04T03:52:54.216Z,100.00
2022-09-04T03:56:00.865Z,100.00
2022-09-04T03:59:03.033Z,100.00
2022-09-04T04:01:55.858Z,100.00
2022-09-04T04:05:17.104Z,100.00
2022-09-04T04:08:11.418Z,100.00
2022-09-04T04:11:18.974Z,100.00
2022-09-04T04:14:18.201Z,100.00
2022-09-04T04:17:43.001Z,100.00
2022-09-04T04:20:52.328Z,100.00
2022-09-04T04:23:59.087Z,100.00
2022-09-04T04:27:18.085Z,100.00
2022-09-04T04:30:16.975Z,100.00
2022-09-04T04:33:11.681Z,100.00
2022-09-04T04:36:13.081Z,100.00
2022-09-04T04:39:10.033Z,100.00
2022-09-04T04:42:15.232Z,100.00
2022-09-04T04:45:46.777Z,100.00
2022-09-04T04:49:28.466Z,100.00
2022-09-04T04:52:18.470Z,100.00
2022-09-04T04:55:31.560Z,100.00
2022-09-04T04:58:25.041Z,100.00
2022-09-04T05:01:28.422Z,100.00
2022-09-04T05:04:53.176Z,100.00
2022-09-04T05:07:43.173Z,100.00
2022-09-04T05:10:46.941Z,100.00
2022-09-04T05:13:55.744Z,100.00
2022-09-04T05:17:20.541Z,100.00
2022-09-04T05:20:17.010Z,100.00
2022-09-04T05:23:29.421Z,100.00
2022-09-04T05:26:25.809Z,100.00
2022-09-04T05:29:28.158Z,100.00
2022-09-04T05:32:29.633Z,100.00
2022-09-04T05:35:31.828Z,100.00
2022-09-04T05:38:52.359Z,100.00
2022-09-04T05:42:08.900Z,100.00
2022-09-04T05:45:24.646Z,100.00
2022-09-04T05:48:56.596Z,100.00
2022-09-04T05:52:07.303Z,100.00
2022-09-04T05:55:16.225Z,100.00
2022-09-04T05:58:17.532Z,100.00
2022-09-04T06:02:10.775Z,100.00
2022-09-04T06:05:19.032Z,100.00
2022-09-04T06:08:16.753Z,100.00
2022-09-04T06:11:51.446Z,100.00
2022-09-04T06:15:00.187Z,100.00
2022-09-04T06:18:02.273Z,100.00
2022-09-04T06:21:01.496Z,100.00
2022-09-04T06:24:24.473Z,100.00
2022-09-04T06:27:20.825Z,100.00
2022-09-04T06:30:16.344Z,100.00
2022-09-04T06:33:42.061Z,100.00
2022-09-04T06:36:46.281Z,100.00
2022-09-04T06:39:59.827Z,100.00
2022-09-04T06:43:19.500Z,100.00
2022-09-04T06:46:27.141Z,100.00
2022-09-04T06:49:24.106Z,100.00
2022-09-04T06:52:21.129Z,100.00
2022-09-04T06:55:13.575Z,100.00
2022-09-04T06:58:09.971Z,100.00
2022-09-04T07:01:08.673Z,100.00
2022-09-04T07:04:53.453Z,100.00
2022-09-04T07:08:02.960Z,100.00
2022-09-04T07:11:18.795Z,100.00
2022-09-04T07:14:33.881Z,100.00
2022-09-04T07:17:40.227Z,100.00
2022-09-04T07:20:56.864Z,100.00
2022-09-04T07:24:07.422Z,100.00
2022-09-04T07:27:28.048Z,100.00
2022-09-04T07:30:17.377Z,100.00
2022-09-04T07:33:12.486Z,100.00
2022-09-04T07:36:13.318Z,100.00
2022-09-04T07:39:25.147Z,100.00
2022-09-04T07:42:20.185Z,100.00
2022-09-04T07:45:22.426Z,100.00
2022-09-04T07:48:32.302Z,100.00
2022-09-04T07:51:26.338Z,100.00
2022-09-04T07:54:35.548Z,100.00
2022-09-04T07:57:44.505Z,100.00
2022-09-04T08:01:01.849Z,100.00
2022-09-04T08:04:04.738Z,100.00
2022-09-04T08:06:59.209Z,100.00
2022-09-04T08:10:22.697Z,100.00
2022-09-04T08:13:26.629Z,100.00
2022-09-04T08:16:41.554Z,100.00
2022-09-04T08:19:48.708Z,100.00
2022-09-04T08:23:04.232Z,100.00
2022-09-04T08:25:54.116Z,100.00
2022-09-04T08:29:08.869Z,100.00
2022-09-04T08:32:38.069Z,100.00
2022-09-04T08:35:56.783Z,100.00
2022-09-04T08:39:21.681Z,100.00
2022-09-04T08:42:39.562Z,100.00
2022-09-04T08:45:48.283Z,100.00
2022-09-04T08:48:48.770Z,100.00
2022-09-04T08:52:18.589Z,100.00
2022-09-04T08:55:33.132Z,100.00
2022-09-04T08:58:38.486Z,100.00
2022-09-04T09:01:31.732Z,100.00
2022-09-04T09:05:00.053Z,100.00
2022-09-04T09:07:58.352Z,100.00
2022-09-04T09:10:54.688Z,100.00
2022-09-04T09:13:47.696Z,100.00
2022-09-04T09:16:48.281Z,100.00
2022-09-04T09:19:59.907Z,100.00
2022-09-04T09:23:19.272Z,100.00
2022-09-04T09:26:12.320Z,100.00
2022-09-04T09:29:24.617Z,100.00
2022-09-04T09:32:59.255Z,100.00
2022-09-04T09:36:16.077Z,100.00
2022-09-04T09:39:05.933Z,99.14
2022-09-04T09:42:25.061Z,100.00
2022-09-04T09:45:35.697Z,100.00
2022-09-04T09:48:57.488Z,100.00
2022-09-04T09:52:09.621Z,100.00
2022-09-04T09:55:45.685Z,96.75
2022-09-04T09:58:58.515Z,99.60
2022-09-04T10:02:40.144Z,100.00
2022-09-04T10:05:55.479Z,99.74
2022-09-04T10:09:24.299Z,99.03
2022-09-04T10:12:50.201Z,98.55
2022-09-04T10:16:14.812Z,93.65
2022-09-04T10:19:31.084Z,93.82
2022-09-04T10:22:33.429Z,95.61
2022-09-04T10:25:49.942Z,95.32
2022-09-04T10:29:04.078Z,93.01
2022-09-04T10:31:54.323Z,91.22
2022-09-04T10:34:56.768Z,91.35
2022-09-04T10:38:01.425Z,92.37
2022-09-04T10:41:08.889Z,90.53
2022-09-04T10:44:26.409Z,90.32
2022-09-04T10:47:41.266Z,88.24
2022-09-04T10:50:58.044Z,85.34
2022-09-04T10:54:07.810Z,87.63
2022-09-04T10:57:18.370Z,86.76
2022-09-04T11:00:20.286Z,84.85
2022-09-04T11:03:44.294Z,85.71
2022-09-04T11:06:49.258Z,84.52
2022-09-04T11:10:04.291Z,80.66
2022-09-04T11:13:30.001Z,79.49
2022-09-04T11:16:17.218Z,82.05
2022-09-04T11:19:10.358Z,84.17
2022-09-04T11:22:20.306Z,84.65
2022-09-04T11:25:19.426Z,82.34
2022-09-04T11:28:07.026Z,83.70
2022-09-04T11:31:22.084Z,83.19
2022-09-04T11:34:41.904Z,82.17
2022-09-04T11:38:03.349Z,78.45
2022-09-04T11:41:22.303Z,79.55
2022-09-04T11:44:25.189Z,78.66
2022-09-04T11:47:30.357Z,78.70
2022-09-04T11:50:36.680Z,77.17
2022-09-04T11:53:40.288Z,77.00
2022-09-04T11:56:50.669Z,73.96
2022-09-04T11:59:59.696Z,75.18
2022-09-04T12:03:10.623Z,73.35
2022-09-04T12:06:09.989Z,74.73
2022-09-04T12:09:00.201Z,73.39
2022-09-04T12:11:50.863Z,72.07
2022-09-04T12:14:56.109Z,70.57
2022-09-04T12:17:58.149Z,69.34
2022-09-04T12:21:01.851Z,67.38
2022-09-04T12:24:05.990Z,67.62
2022-09-04T12:26:56.002Z,67.57
2022-09-04T12:29:52.450Z,67.55
2022-09-04T12:32:42.741Z,68.60
2022-09-04T12:36:05.904Z,68.82
2022-09-04T12:39:11.619Z,68.49
2022-09-04T12:42:24.168Z,68.23
2022-09-04T12:45:17.292Z,68.85
2022-09-04T12:48:27.673Z,67.67
2022-09-04T12:51:21.168Z,66.22
2022-09-04T12:54:34.350Z,67.10
2022-09-04T12:57:49.789Z,65.09
2022-09-04T13:01:08.408Z,65.17
2022-09-04T13:04:05.722Z,66.08
2022-09-04T13:07:15.827Z,64.11
2022-09-04T13:10:24.799Z,64.13
2022-09-04T13:13:30.481Z,63.77
2022-09-04T13:16:38.866Z,63.31
2022-09-04T13:19:45.936Z,61.90
2022-09-04T13:22:55.031Z,62.29
2022-09-04T13:25:58.537Z,59.64
2022-09-04T13:28:54.763Z,58.44
2022-09-04T13:31:45.027Z,59.09
2022-09-04T13:34:58.545Z,58.10
2022-09-04T13:37:54.691Z,59.38
2022-09-04T13:41:12.391Z,57.78
2022-09-04T13:44:00.586Z,57.93
2022-09-04T13:46:54.677Z,58.25
2022-09-04T13:49:48.151Z,57.03
2022-09-04T13:52:49.973Z,57.73
2022-09-04T13:55:49.981Z,58.01
2022-09-04T13:58:44.272Z,59.23
2022-09-04T14:01:46.018Z,58.95
2022-09-04T14:04:48.741Z,59.69
2022-09-04T14:07:42.835Z,59.38
2022-09-04T14:11:05.896Z,58.29
2022-09-04T14:14:11.361Z,57.82
2022-09-04T14:16:59.978Z,56.61
2022-09-04T14:20:22.456Z,57.57
2022-09-04T14:23:38.096Z,57.30
2022-09-04T14:26:35.690Z,57.69
2022-09-04T14:29:38.900Z,56.72
2022-09-04T14:32:49.362Z,56.51
2022-09-04T14:35:50.742Z,55.75
2022-09-04T14:39:04.716Z,56.40
2022-09-04T14:42:03.719Z,56.95
2022-09-04T14:45:18.109Z,56.19
2022-09-04T14:48:12.115Z,56.92
2022-09-04T14:51:13.368Z,56.71
2022-09-04T14:54:02.010Z,57.38
2022-09-04T14:56:54.166Z,57.21
2022-09-04T14:59:51.530Z,56.66
2022-09-04T15:03:08.656Z,57.93
2022-09-04T15:05:59.271Z,57.23
2022-09-04T15:08:50.545Z,56.87
2022-09-04T15:11:37.900Z,56.08
2022-09-04T15:14:32.816Z,58.42
2022-09-04T15:17:29.837Z,58.29
2022-09-04T15:20:27.751Z,56.94
2022-09-04T15:23:27.461Z,57.40
2022-09-04T15:26:24.802Z,58.35
2022-09-04T15:29:20.834Z,57.97
2022-09-04T15:32:13.934Z,58.36
2022-09-04T15:35:15.625Z,58.64
2022-09-04T15:38:21.203Z,58.77
2022-09-04T15:41:19.302Z,59.13
2022-09-04T15:44:21.592Z,59.31
2022-09-04T15:47:15.853Z,58.79
2022-09-04T15:50:22.312Z,58.39
2022-09-04T15:53:25.064Z,58.70
2022-09-04T15:56:17.144Z,57.85
2022-09-04T15:59:15.933Z,58.44
2022-09-04T16:02:25.027Z,58.11
2022-09-04T16:05:25.477Z,59.17
2022-09-04T16:08:26.123Z,58.54
2022-09-04T16:11:29.237Z,58.34
2022-09-04T16:14:22.922Z,58.60
2022-09-04T16:17:20.097Z,59.08
2022-09-04T16:20:36.091Z,58.41
2022-09-04T16:23:32.056Z,57.79
2022-09-04T16:26:27.050Z,58.94
2022-09-04T16:29:29.715Z,58.76
2022-09-04T16:32:22.186Z,59.02
2022-09-04T16:35:19.349Z,58.98
2022-09-04T16:38:14.746Z,58.73
2022-09-04T16:41:25.490Z,58.14
2022-09-04T16:44:25.848Z,58.52
2022-09-04T16:47:26.666Z,59.21
2022-09-04T16:50:37.620Z,58.12
2022-09-04T16:53:41.706Z,59.32
2022-09-04T16:56:40.566Z,59.38
2022-09-04T16:59:35.599Z,59.27
2022-09-04T17:02:43.907Z,58.93
2022-09-04T17:05:50.773Z,58.34
2022-09-04T17:09:21.561Z,59.25
2022-09-04T17:12:32.690Z,59.47
2022-09-04T17:15:34.516Z,58.66
2022-09-04T17:18:24.327Z,60.02
2022-09-04T17:27:26.012Z,61.84
2022-09-04T17:29:07.543Z,62.51
2022-09-04T17:29:08.422Z,62.50
2022-09-04T17:31:38.506Z,61.55
2022-09-04T17:40:36.664Z,62.68
2022-09-04T17:40:54.444Z,63.60
2022-09-04T17:41:31.423Z,63.20
2022-09-04T17:44:54.230Z,62.60
2022-09-04T17:47:42.889Z,62.81
2022-09-04T17:50:30.450Z,62.56
2022-09-04T17:53:33.469Z,62.92
2022-09-04T17:56:31.576Z,62.88
2022-09-04T17:59:28.912Z,62.15
2022-09-04T18:02:25.825Z,61.56
2022-09-04T18:05:25.461Z,62.60
2022-09-04T18:08:32.631Z,62.31
2022-09-04T18:11:27.108Z,62.26
2022-09-04T18:14:23.012Z,63.18
2022-09-04T18:17:23.400Z,63.93
2022-09-04T18:20:38.236Z,64.51
2022-09-04T18:23:51.349Z,65.65
2022-09-04T18:26:45.469Z,66.64
2022-09-04T18:32:43.196Z,66.17
2022-09-04T18:37:20.411Z,67.49
2022-09-04T18:37:24.928Z,66.74
2022-09-04T18:40:00.189Z,68.41
2022-09-04T18:50:23.364Z,68.63
2022-09-04T18:50:32.332Z,68.98
2022-09-04T18:50:41.122Z,69.34
2022-09-04T18:52:42.438Z,68.80
2022-09-04T18:55:37.012Z,69.36
2022-09-04T18:58:37.975Z,69.59
2022-09-04T19:01:38.469Z,69.75
2022-09-04T19:04:41.430Z,70.33
2022-09-04T19:07:49.128Z,70.63
2022-09-04T19:10:49.809Z,70.59
2022-09-04T19:13:48.365Z,70.81
2022-09-04T19:16:48.994Z,70.96
2022-09-04T19:19:54.080Z,70.92
2022-09-04T19:22:47.920Z,71.81
2022-09-04T19:25:44.186Z,72.00
2022-09-04T19:28:55.919Z,72.31
2022-09-04T19:31:59.046Z,72.15
2022-09-04T19:35:11.962Z,72.03
2022-09-04T19:42:47.796Z,72.36
2022-09-04T19:45:59.686Z,72.90
2022-09-04T19:46:09.323Z,72.37
2022-09-04T19:48:20.710Z,72.85
2022-09-04T19:53:24.518Z,73.04
2022-09-04T19:54:33.843Z,74.04
2022-09-04T19:57:34.504Z,73.81
2022-09-04T20:00:43.100Z,74.00
2022-09-04T20:03:39.569Z,74.47
2022-09-04T20:06:36.328Z,75.45
2022-09-04T20:09:37.258Z,75.80
2022-09-04T20:12:35.438Z,75.08
2022-09-04T20:15:31.603Z,75.38
2022-09-04T20:18:39.468Z,76.73
2022-09-04T20:21:50.235Z,77.30
2022-09-04T20:25:01.289Z,77.00
2022-09-04T20:28:14.518Z,77.09
2022-09-04T20:31:36.138Z,77.86
2022-09-04T20:34:27.201Z,77.58
2022-09-04T20:37:53.726Z,77.77
2022-09-04T20:40:44.277Z,78.37
2022-09-04T20:44:00.529Z,78.82
2022-09-04T20:52:43.302Z,78.70
2022-09-04T20:53:00.035Z,78.71
2022-09-04T20:54:07.175Z,78.61
2022-09-04T21:00:23.606Z,78.77
2022-09-04T21:03:10.002Z,79.11
2022-09-04T21:04:02.978Z,79.76
2022-09-04T21:07:24.989Z,79.64
2022-09-04T21:10:37.092Z,79.30
2022-09-04T21:14:03.551Z,80.30
2022-09-04T21:17:33.421Z,80.74
2022-09-04T21:20:19.264Z,82.34
2022-09-04T21:23:07.453Z,82.90
2022-09-04T21:25:57.731Z,82.19
2022-09-04T21:29:10.844Z,82.15
2022-09-04T21:32:13.334Z,82.12
2022-09-04T21:35:13.935Z,82.25
2022-09-04T21:38:39.389Z,83.52
2022-09-04T21:42:17.156Z,83.60
2022-09-04T21:45:16.630Z,84.18
2022-09-04T21:48:43.564Z,84.20
2022-09-04T21:51:36.502Z,83.75
2022-09-04T21:59:49.308Z,84.70
2022-09-04T22:02:36.349Z,85.16
2022-09-04T22:02:39.336Z,84.82
2022-09-04T22:05:09.601Z,85.44
2022-09-04T22:13:26.542Z,86.01
2022-09-04T22:13:38.855Z,86.37
2022-09-04T22:14:46.673Z,86.43
2022-09-04T22:18:09.867Z,85.38
2022-09-04T22:21:40.208Z,85.67
2022-09-04T22:25:06.174Z,86.86
2022-09-04T22:28:17.022Z,86.38
2022-09-04T22:31:24.572Z,86.98
2022-09-04T22:34:46.574Z,88.02
2022-09-04T22:37:48.958Z,88.41
2022-09-04T22:40:56.490Z,88.00
2022-09-04T22:44:12.957Z,87.96
2022-09-04T22:47:25.616Z,89.21
2022-09-04T22:50:18.788Z,89.44
2022-09-04T22:53:27.018Z,90.59
2022-09-04T22:56:42.900Z,91.25
2022-09-04T22:59:42.253Z,92.93
2022-09-04T23:08:29.122Z,91.44
2022-09-04T23:13:46.234Z,90.50
2022-09-04T23:13:46.603Z,90.15
2022-09-04T23:16:41.493Z,90.75
2022-09-04T23:26:35.091Z,91.00
2022-09-04T23:26:43.217Z,91.23
2022-09-04T23:27:00.235Z,91.59
2022-09-04T23:30:06.025Z,92.74
2022-09-04T23:33:10.705Z,91.49
2022-09-04T23:36:22.657Z,91.10
2022-09-04T23:40:00.954Z,91.97
2022-09-04T23:43:12.828Z,91.82
2022-09-04T23:46:09.350Z,92.50
2022-09-04T23:49:10.996Z,91.38
2022-09-04T23:52:08.030Z,90.62
2022-09-04T23:55:17.607Z,90.69
2022-09-04T23:58:51.810Z,91.55
